Time;durP1;ratioP1;P1;durP2;ratioP2;P2;SDS_P1;SDS_P2;PMS_P1;PMS_P2;Temp;Humidity;BMP_temperature;BMP_pressure;BME280_temperature;BME280_humidity;BME280_pressure;Samples;Min_cycle;Max_cycle;Signal;HPM_P1;HPM_P2
2022/08/02 00:01:33;;;;;;;7.32;2.85;;;14.40;99.90;;;;;;4989538;28;20042;-54
2022/08/02 00:03:58;;;;;;;6.43;2.53;;;14.30;99.90;;;;;;4997381;28;20037;-56
2022/08/02 00:06:25;;;;;;;13.00;3.17;;;14.30;99.90;;;;;;4985336;28;20485;-56
2022/08/02 00:08:50;;;;;;;10.25;2.60;;;14.20;99.90;;;;;;4981356;28;20048;-52
2022/08/02 00:11:16;;;;;;;8.25;2.53;;;14.20;99.90;;;;;;4987560;28;20558;-54
2022/08/02 00:13:42;;;;;;;7.97;2.70;;;14.10;99.90;;;;;;4998541;28;20037;-56
2022/08/02 00:16:07;;;;;;;8.38;2.50;;;14.10;99.90;;;;;;4992933;28;22378;-55
2022/08/02 00:18:33;;;;;;;10.70;3.42;;;14.10;99.90;;;;;;5001733;28;20111;-54
2022/08/02 00:20:59;;;;;;;7.60;3.05;;;14.10;99.90;;;;;;4992146;28;20045;-54
2022/08/02 00:23:24;;;;;;;5.38;2.80;;;14.10;99.90;;;;;;4998114;28;20051;-56
2022/08/02 00:25:50;;;;;;;5.35;2.47;;;14.10;99.90;;;;;;4997887;28;20527;-55
2022/08/02 00:28:16;;;;;;;7.53;2.78;;;14.00;99.90;;;;;;5000489;28;20293;-55
2022/08/02 00:30:41;;;;;;;12.20;3.38;;;14.00;99.90;;;;;;4994783;28;20193;-53
2022/08/02 00:33:07;;;;;;;8.23;2.60;;;14.00;99.90;;;;;;5009592;28;20045;-56
2022/08/02 00:35:36;;;;;;;7.28;2.90;;;14.00;99.90;;;;;;5005820;28;20049;-55
2022/08/02 00:38:03;;;;;;;8.32;2.90;;;14.00;99.90;;;;;;5012312;28;20042;-56
2022/08/02 00:40:29;;;;;;;10.23;4.43;;;14.00;99.90;;;;;;4991905;28;20047;-57
2022/08/02 00:43:21;;;;;;;7.70;3.50;;;13.90;99.90;;;;;;5014418;28;20460;-55
2022/08/02 00:45:47;;;;;;;8.10;2.97;;;14.00;99.90;;;;;;4996245;28;20088;-57
2022/08/02 00:48:13;;;;;;;14.05;3.35;;;14.00;99.90;;;;;;5010014;28;20065;-57
2022/08/02 00:50:40;;;;;;;7.50;3.85;;;14.00;99.90;;;;;;4997106;28;20194;-54
2022/08/02 00:53:08;;;;;;;6.05;2.50;;;13.90;99.90;;;;;;5006563;28;20041;-54
2022/08/02 00:55:35;;;;;;;9.00;2.95;;;13.90;99.90;;;;;;4991854;28;20050;-55
2022/08/02 00:58:01;;;;;;;7.22;2.67;;;13.90;99.90;;;;;;4992545;28;20055;-56
2022/08/02 01:00:26;;;;;;;7.32;2.60;;;14.00;99.90;;;;;;4992104;28;20041;-54
2022/08/02 01:02:52;;;;;;;11.15;3.35;;;13.90;99.90;;;;;;5024753;23;20036;-55
2022/08/02 01:05:18;;;;;;;9.55;3.40;;;13.90;99.90;;;;;;5045353;28;20049;-55
2022/08/02 01:07:43;;;;;;;7.72;3.22;;;13.90;99.90;;;;;;5045212;28;20083;-56
2022/08/02 01:10:09;;;;;;;12.85;3.53;;;14.40;99.90;;;;;;5044443;28;20461;-56
2022/08/02 01:12:36;;;;;;;9.52;3.10;;;13.90;99.90;;;;;;5054854;28;20028;-55
2022/08/02 01:15:07;;;;;;;9.07;2.85;;;13.90;99.90;;;;;;5054622;28;20120;-57
2022/08/02 01:17:55;;;;;;;7.20;2.90;;;13.90;99.90;;;;;;5049708;28;20048;-53
2022/08/02 01:20:26;;;;;;;7.40;2.92;;;13.90;99.90;;;;;;5045954;28;20286;-56
2022/08/02 01:23:07;;;;;;;11.05;3.50;;;13.90;99.90;;;;;;5060856;28;20143;-56
2022/08/02 01:25:48;;;;;;;8.57;3.10;;;13.90;99.90;;;;;;5047484;28;20131;-56
2022/08/02 01:28:49;;;;;;;6.03;2.70;;;13.80;99.90;;;;;;5049475;28;20163;-55
2022/08/02 01:31:29;;;;;;;12.32;3.50;;;13.90;99.90;;;;;;5048961;28;20099;-57
2022/08/02 01:34:09;;;;;;;9.77;3.58;;;13.80;99.90;;;;;;5046720;28;20052;-56
2022/08/02 01:36:40;;;;;;;9.65;3.15;;;13.80;99.90;;;;;;5042057;28;20044;-55
2022/08/02 01:39:10;;;;;;;8.98;3.45;;;13.80;99.90;;;;;;5032604;28;20546;-56
2022/08/02 01:41:37;;;;;;;9.20;3.58;;;13.80;99.90;;;;;;5062846;28;20043;-56
2022/08/02 01:44:04;;;;;;;10.13;3.10;;;13.70;99.90;;;;;;5057023;28;20036;-53
2022/08/02 01:46:31;;;;;;;6.03;2.90;;;13.70;99.90;;;;;;5040937;28;20040;-53
2022/08/02 01:49:01;;;;;;;8.57;3.35;;;13.70;99.90;;;;;;5049684;28;20132;-56
2022/08/02 01:54:16;;;;;;;6.22;2.53;;;13.80;99.90;;;;;;5068160;28;20044;-55
2022/08/02 01:56:43;;;;;;;10.23;3.70;;;13.80;99.90;;;;;;5056059;28;20059;-57
2022/08/02 01:59:12;;;;;;;9.48;3.55;;;13.80;99.90;;;;;;5037289;28;20063;-53
2022/08/02 02:01:39;;;;;;;9.75;3.15;;;13.80;99.90;;;;;;5037283;28;20067;-56
2022/08/02 02:04:07;;;;;;;9.00;2.92;;;13.80;99.90;;;;;;5033931;28;20110;-57
2022/08/02 02:06:35;;;;;;;6.97;3.13;;;13.90;99.90;;;;;;5051454;28;20063;-54
2022/08/02 02:09:03;;;;;;;8.88;3.10;;;13.80;99.90;;;;;;5053970;28;20523;-55
2022/08/02 02:11:31;;;;;;;9.00;2.85;;;13.80;99.90;;;;;;5038477;28;20495;-56
2022/08/02 02:13:59;;;;;;;9.20;3.40;;;13.80;99.90;;;;;;5045682;28;20047;-54
2022/08/02 02:16:26;;;;;;;7.63;3.05;;;13.90;99.90;;;;;;5051108;28;20040;-53
2022/08/02 02:18:53;;;;;;;8.82;3.42;;;13.80;99.90;;;;;;5050543;28;20036;-55
2022/08/02 02:21:18;;;;;;;7.03;3.10;;;13.90;99.90;;;;;;5053388;28;20577;-56
2022/08/02 02:23:44;;;;;;;6.22;3.08;;;13.90;99.90;;;;;;5067220;28;20104;-55
2022/08/02 02:26:13;;;;;;;7.22;2.60;;;13.80;99.90;;;;;;5058826;28;20040;-54
2022/08/02 02:28:42;;;;;;;7.65;3.00;;;13.80;99.90;;;;;;5050409;28;20534;-55
2022/08/02 02:31:11;;;;;;;9.18;3.33;;;13.80;99.90;;;;;;5058254;28;20040;-56
2022/08/02 02:33:43;;;;;;;8.20;2.72;;;13.80;99.90;;;;;;5053319;28;20051;-53
2022/08/02 02:36:10;;;;;;;10.70;2.97;;;13.80;99.90;;;;;;5056288;28;20499;-54
2022/08/02 02:38:38;;;;;;;11.00;3.50;;;13.80;99.90;;;;;;5063489;28;20055;-56
2022/08/02 02:41:05;;;;;;;8.90;3.72;;;13.80;99.90;;;;;;5057599;28;20205;-53
2022/08/02 02:43:33;;;;;;;8.00;3.22;;;13.80;99.90;;;;;;5059379;28;20758;-56
2022/08/02 02:46:02;;;;;;;9.65;2.97;;;13.80;99.90;;;;;;5057993;28;20052;-56
2022/08/02 02:48:28;;;;;;;6.97;3.13;;;13.80;99.90;;;;;;5053786;28;20384;-56
2022/08/02 02:50:55;;;;;;;6.15;3.35;;;13.80;99.90;;;;;;5054956;28;20052;-56
2022/08/02 02:53:22;;;;;;;7.38;3.17;;;13.80;99.90;;;;;;5059186;28;20036;-59
2022/08/02 02:55:48;;;;;;;11.13;3.30;;;13.80;99.90;;;;;;5033902;28;20037;-55
2022/08/02 02:58:15;;;;;;;8.90;3.17;;;13.80;99.90;;;;;;5069467;28;20041;-55
2022/08/02 03:03:26;;;;;;;9.32;3.40;;;13.80;99.90;;;;;;5053639;28;20150;-53
2022/08/02 03:05:51;;;;;;;5.75;3.17;;;13.80;99.90;;;;;;5057120;28;20513;-57
2022/08/02 03:08:17;;;;;;;8.32;3.28;;;13.80;99.90;;;;;;5054871;28;20037;-55
2022/08/02 03:10:43;;;;;;;6.45;2.83;;;13.80;99.90;;;;;;5055187;28;20439;-57
2022/08/02 03:13:10;;;;;;;8.35;3.10;;;13.80;99.90;;;;;;5061033;28;20048;-56
2022/08/02 03:15:37;;;;;;;12.57;3.17;;;13.80;99.90;;;;;;5059654;28;20056;-55
2022/08/02 03:18:03;;;;;;;9.35;3.03;;;13.80;99.90;;;;;;5051439;28;20580;-55
2022/08/02 03:20:28;;;;;;;5.28;2.63;;;13.90;99.90;;;;;;5038900;28;20069;-55
2022/08/02 03:22:54;;;;;;;8.13;3.17;;;13.90;99.90;;;;;;5043799;28;20133;-53
2022/08/02 03:25:20;;;;;;;9.68;3.55;;;13.90;99.90;;;;;;5064138;28;20483;-57
2022/08/02 03:27:46;;;;;;;6.47;3.10;;;13.80;99.90;;;;;;5048399;28;20095;-55
2022/08/02 03:30:13;;;;;;;12.43;3.90;;;13.80;99.90;;;;;;5045470;28;20051;-56
2022/08/02 03:32:41;;;;;;;9.40;3.15;;;13.80;99.90;;;;;;5068404;28;20321;-56
2022/08/02 03:35:09;;;;;;;6.75;2.80;;;13.80;99.90;;;;;;5053951;28;20041;-57
2022/08/02 03:37:36;;;;;;;11.40;3.22;;;13.80;99.90;;;;;;5054049;28;20044;-52
2022/08/02 03:40:06;;;;;;;12.35;3.53;;;13.80;99.90;;;;;;5055151;28;20092;-55
2022/08/02 03:42:32;;;;;;;10.48;3.33;;;13.80;99.90;;;;;;5064165;28;20635;-54
2022/08/02 03:44:59;;;;;;;10.77;3.53;;;13.80;99.90;;;;;;5057941;28;20221;-56
2022/08/02 03:47:27;;;;;;;12.23;3.53;;;13.80;99.90;;;;;;5078721;28;20103;-56
2022/08/02 03:49:53;;;;;;;7.07;2.85;;;13.90;99.90;;;;;;5055738;28;20040;-55
2022/08/02 03:52:19;;;;;;;8.90;2.60;;;13.90;99.90;;;;;;5034214;28;20066;-57
2022/08/02 03:54:45;;;;;;;12.88;3.22;;;13.90;99.90;;;;;;5045501;28;20041;-56
2022/08/02 03:57:11;;;;;;;5.68;3.10;;;13.90;99.90;;;;;;5048694;28;20071;-56
2022/08/02 03:59:42;;;;;;;7.80;3.58;;;13.80;99.90;;;;;;5064972;28;20055;-56
2022/08/02 04:02:09;;;;;;;7.93;3.45;;;13.80;99.90;;;;;;5055936;28;20117;-53
2022/08/02 04:04:35;;;;;;;9.85;3.47;;;13.80;99.90;;;;;;5061252;28;20274;-52
2022/08/02 04:07:02;;;;;;;8.23;3.90;;;13.80;99.90;;;;;;5045307;28;21079;-55
2022/08/02 04:09:27;;;;;;;12.35;3.97;;;13.80;99.90;;;;;;5049491;28;20044;-56
2022/08/02 04:11:53;;;;;;;10.23;3.55;;;13.80;99.90;;;;;;5053261;28;20032;-56
2022/08/02 04:14:19;;;;;;;11.00;3.55;;;13.80;99.90;;;;;;5016742;28;20052;-56
2022/08/02 04:16:51;;;;;;;6.57;3.72;;;13.80;99.90;;;;;;5041212;28;20095;-54
2022/08/02 04:19:32;;;;;;;12.55;4.55;;;13.80;99.90;;;;;;5059167;28;20106;-56
2022/08/02 04:22:03;;;;;;;9.05;3.42;;;13.80;99.90;;;;;;5053755;28;20125;-57
2022/08/02 04:24:34;;;;;;;12.48;3.47;;;13.80;99.90;;;;;;5037798;28;20690;-56
2022/08/02 04:27:01;;;;;;;11.80;4.53;;;13.80;99.90;;;;;;5054892;28;20064;-57
2022/08/02 04:29:30;;;;;;;11.25;4.10;;;13.80;99.90;;;;;;5051512;28;20040;-55
2022/08/02 04:31:57;;;;;;;8.40;3.92;;;13.80;99.90;;;;;;5052340;28;20137;-57
2022/08/02 04:34:23;;;;;;;11.93;4.07;;;13.80;99.90;;;;;;5021517;28;20037;-56
2022/08/02 04:36:49;;;;;;;11.20;4.65;;;13.80;99.90;;;;;;5068149;28;20465;-54
2022/08/02 04:39:15;;;;;;;8.35;4.03;;;13.80;99.90;;;;;;5043636;28;20036;-55
2022/08/02 04:41:43;;;;;;;9.55;3.85;;;13.80;99.90;;;;;;5051809;28;20129;-55
2022/08/02 04:44:09;;;;;;;9.75;3.90;;;13.90;99.90;;;;;;5057564;28;20511;-57
2022/08/02 04:46:39;;;;;;;8.55;4.07;;;13.90;99.90;;;;;;5055984;28;20113;-54
2022/08/02 04:49:05;;;;;;;9.60;3.78;;;13.90;99.90;;;;;;5039311;28;20414;-57
2022/08/02 04:51:40;;;;;;;7.97;3.67;;;14.00;99.90;;;;;;5067469;28;20133;-57
2022/08/02 04:54:07;;;;;;;6.45;4.07;;;14.00;99.90;;;;;;5062344;28;20408;-57
2022/08/02 04:56:33;;;;;;;9.82;3.85;;;14.10;99.90;;;;;;5030132;28;20041;-55
2022/08/02 04:58:59;;;;;;;8.15;3.60;;;14.10;99.90;;;;;;5030964;28;20105;-57
2022/08/02 05:01:25;;;;;;;11.88;4.88;;;14.10;99.90;;;;;;5062912;28;20051;-54
2022/08/02 05:03:50;;;;;;;8.63;3.35;;;14.10;99.90;;;;;;5060110;28;20062;-55
2022/08/02 05:06:18;;;;;;;8.68;3.92;;;14.20;99.90;;;;;;5045689;28;20498;-55
2022/08/02 05:08:47;;;;;;;8.05;3.90;;;14.20;99.90;;;;;;5044361;28;20131;-53
2022/08/02 05:11:13;;;;;;;12.23;3.97;;;14.20;99.90;;;;;;5060280;28;20047;-52
2022/08/02 05:13:40;;;;;;;8.70;3.40;;;14.30;99.90;;;;;;5061564;28;20051;-54
2022/08/02 05:16:06;;;;;;;8.10;3.85;;;14.30;99.90;;;;;;5052907;28;20077;-53
2022/08/02 05:18:32;;;;;;;8.73;3.72;;;14.30;99.90;;;;;;5040373;28;20107;-55
2022/08/02 05:20:57;;;;;;;12.80;3.92;;;14.30;99.90;;;;;;5062968;28;20044;-56
2022/08/02 05:23:23;;;;;;;8.32;3.97;;;14.30;99.90;;;;;;5041314;28;20051;-56
2022/08/02 05:25:52;;;;;;;10.70;3.92;;;14.30;99.90;;;;;;5042885;28;20579;-55
2022/08/02 05:28:17;;;;;;;7.50;3.50;;;14.30;99.90;;;;;;5054525;28;20495;-57
2022/08/02 05:30:43;;;;;;;9.80;4.30;;;14.40;99.90;;;;;;5035860;28;20166;-55
2022/08/02 05:33:09;;;;;;;8.15;4.50;;;14.40;99.90;;;;;;5028876;28;21943;-55
2022/08/02 05:35:35;;;;;;;13.93;4.30;;;14.40;99.90;;;;;;5048690;28;20495;-54
2022/08/02 05:38:01;;;;;;;11.15;4.22;;;14.50;99.90;;;;;;5054686;28;20036;-55
2022/08/02 05:40:27;;;;;;;7.82;3.75;;;14.60;99.90;;;;;;5032948;28;20302;-56
2022/08/02 05:42:53;;;;;;;8.80;4.10;;;14.60;99.90;;;;;;5053930;28;20036;-56
2022/08/02 05:45:19;;;;;;;7.47;4.30;;;14.80;99.90;;;;;;5058482;28;20040;-56
2022/08/02 05:47:45;;;;;;;7.07;3.72;;;14.80;99.90;;;;;;5058977;28;20215;-56
2022/08/02 05:50:11;;;;;;;8.45;3.90;;;14.90;99.90;;;;;;5049453;28;20044;-56
2022/08/02 05:52:52;;;;;;;12.73;4.65;;;15.00;99.90;;;;;;5057225;28;20499;-56
2022/08/02 05:55:19;;;;;;;8.60;4.07;;;15.10;99.90;;;;;;5052933;28;21622;-56
2022/08/02 05:58:01;;;;;;;9.57;3.95;;;15.20;99.90;;;;;;5081358;28;20068;-56
2022/08/02 06:00:30;;;;;;;12.80;4.07;;;15.30;99.90;;;;;;5075220;28;20036;-56
2022/08/02 06:03:15;;;;;;;11.10;3.88;;;15.40;99.90;;;;;;5039466;28;20036;-56
2022/08/02 06:06:01;;;;;;;11.68;4.32;;;15.60;99.90;;;;;;5050072;28;20086;-57
2022/08/02 06:08:32;;;;;;;5.97;3.95;;;15.70;99.90;;;;;;5046846;28;20040;-57
2022/08/02 06:11:01;;;;;;;8.50;3.70;;;15.90;99.90;;;;;;5059348;28;20194;-57
2022/08/02 06:13:27;;;;;;;9.45;3.58;;;15.90;99.90;;;;;;5058949;28;20032;-56
2022/08/02 06:15:58;;;;;;;7.47;3.40;;;16.00;99.90;;;;;;5044735;28;20087;-56
2022/08/02 06:18:26;;;;;;;8.43;3.50;;;16.10;99.90;;;;;;5066815;28;20511;-59
2022/08/02 06:20:54;;;;;;;8.52;3.72;;;16.20;99.90;;;;;;5060338;28;20486;-55
2022/08/02 06:23:21;;;;;;;6.97;3.40;;;16.20;99.90;;;;;;5049849;28;20041;-56
2022/08/02 06:25:49;;;;;;;7.40;3.67;;;16.30;99.90;;;;;;5066922;28;20054;-56
2022/08/02 06:28:15;;;;;;;8.30;3.33;;;16.40;99.90;;;;;;5042587;28;20522;-56
2022/08/02 06:30:43;;;;;;;8.55;3.38;;;16.50;99.90;;;;;;5047174;28;20040;-57
2022/08/02 06:33:09;;;;;;;5.15;3.22;;;16.50;99.90;;;;;;5048379;28;20103;-56
2022/08/02 06:36:09;;;;;;;10.93;3.63;;;16.60;99.90;;;;;;5052716;28;20044;-56
2022/08/02 06:38:50;;;;;;;7.18;3.08;;;16.70;99.90;;;;;;5065004;28;20056;-57
2022/08/02 06:41:17;;;;;;;7.47;3.42;;;16.70;99.90;;;;;;5052990;28;20040;-57
2022/08/02 06:44:03;;;;;;;5.35;3.05;;;16.80;99.90;;;;;;5054013;28;20080;-57
2022/08/02 06:46:29;;;;;;;6.88;3.05;;;17.00;99.90;;;;;;5058441;28;20064;-57
2022/08/02 06:48:55;;;;;;;7.82;3.20;;;17.10;99.90;;;;;;5054969;28;20410;-57
2022/08/02 06:51:21;;;;;;;7.80;3.00;;;17.20;99.90;;;;;;5044844;28;20553;-57
2022/08/02 06:53:47;;;;;;;10.98;3.03;;;17.30;99.90;;;;;;5053137;28;20246;-56
2022/08/02 06:56:13;;;;;;;9.05;2.80;;;17.50;99.90;;;;;;5043881;28;20450;-56
2022/08/02 06:58:39;;;;;;;9.65;3.08;;;17.60;99.90;;;;;;5048461;28;20786;-56
2022/08/02 07:01:06;;;;;;;8.85;3.10;;;17.60;99.90;;;;;;5047757;28;22190;-54
2022/08/02 07:03:39;;;;;;;7.80;2.90;;;17.70;99.90;;;;;;5063954;22;20077;-58
2022/08/02 07:06:08;;;;;;;5.60;2.73;;;17.70;99.90;;;;;;5026168;28;20044;-57
2022/08/02 07:08:37;;;;;;;9.90;2.97;;;17.70;99.90;;;;;;5031231;28;20064;-58
2022/08/02 07:11:03;;;;;;;8.07;2.30;;;17.70;99.90;;;;;;5019293;28;20061;-58
2022/08/02 07:13:29;;;;;;;7.72;2.60;;;17.80;99.90;;;;;;5028259;28;20038;-57
2022/08/02 07:15:55;;;;;;;9.00;2.97;;;17.90;99.90;;;;;;5015529;28;20260;-58
2022/08/02 07:18:22;;;;;;;7.53;2.67;;;18.10;99.90;;;;;;5011160;28;20073;-59
2022/08/02 07:20:47;;;;;;;8.93;2.38;;;18.20;99.90;;;;;;5005896;28;20140;-59
2022/08/02 07:23:13;;;;;;;5.20;2.38;;;18.30;99.90;;;;;;5012577;28;20034;-59
2022/08/02 07:25:39;;;;;;;7.43;2.40;;;18.40;99.90;;;;;;4999486;28;20484;-58
2022/08/02 07:28:07;;;;;;;8.45;2.63;;;18.60;99.90;;;;;;5012566;28;20408;-58
2022/08/02 07:30:33;;;;;;;6.47;2.45;;;18.70;99.90;;;;;;4998874;28;20615;-58
2022/08/02 07:32:59;;;;;;;7.45;2.30;;;18.80;99.90;;;;;;5012758;28;20086;-58
2022/08/02 07:35:25;;;;;;;5.28;2.00;;;18.80;99.90;;;;;;5007853;28;20042;-59
2022/08/02 07:37:52;;;;;;;5.75;2.55;;;18.90;99.90;;;;;;5011517;28;20049;-55
2022/08/02 07:40:19;;;;;;;5.05;2.13;;;19.00;99.90;;;;;;5012890;28;20049;-56
2022/08/02 07:42:45;;;;;;;5.28;2.10;;;19.10;99.90;;;;;;5021590;28;20481;-58
2022/08/02 07:45:13;;;;;;;8.50;2.35;;;19.20;99.90;;;;;;5008099;28;20041;-58
2022/08/02 07:47:40;;;;;;;6.03;1.83;;;19.40;99.90;;;;;;5025063;28;20059;-58
2022/08/02 07:50:08;;;;;;;4.30;1.95;;;19.40;99.90;;;;;;5021044;28;20041;-57
2022/08/02 07:52:34;;;;;;;6.22;2.00;;;19.60;99.90;;;;;;5019719;28;20034;-58
2022/08/02 07:55:00;;;;;;;6.50;2.17;;;19.70;99.90;;;;;;5026483;28;20117;-57
2022/08/02 07:57:25;;;;;;;4.40;1.80;;;19.70;99.90;;;;;;5024363;28;20033;-56
2022/08/02 07:59:51;;;;;;;4.20;2.30;;;19.90;99.90;;;;;;5037530;28;20053;-56
2022/08/02 08:02:17;;;;;;;3.83;1.80;;;20.00;99.90;;;;;;5006715;28;20403;-55
2022/08/02 08:04:43;;;;;;;4.40;1.65;;;20.10;99.90;;;;;;5024520;28;20619;-57
2022/08/02 08:07:10;;;;;;;5.35;1.60;;;20.10;99.90;;;;;;5023834;28;20527;-58
2022/08/02 08:09:44;;;;;;;5.20;1.60;;;20.20;99.90;;;;;;5029153;28;20484;-58
2022/08/02 08:12:10;;;;;;;3.13;1.25;;;20.20;99.90;;;;;;5026036;28;20068;-58
2022/08/02 08:14:37;;;;;;;4.05;1.70;;;20.20;99.90;;;;;;5036786;28;20684;-58
2022/08/02 08:17:04;;;;;;;5.30;1.90;;;20.20;99.90;;;;;;5021080;28;20571;-58
2022/08/02 08:19:30;;;;;;;3.40;1.60;;;20.30;99.90;;;;;;5019299;28;20130;-57
2022/08/02 08:21:55;;;;;;;3.65;1.70;;;20.40;99.90;;;;;;5022891;28;20163;-57
2022/08/02 08:24:21;;;;;;;4.68;1.80;;;20.60;99.90;;;;;;5027536;28;20053;-58
2022/08/02 08:26:47;;;;;;;5.53;2.17;;;20.80;99.90;;;;;;5017820;28;20507;-58
2022/08/02 08:29:12;;;;;;;4.60;1.75;;;20.90;99.90;;;;;;5025363;28;20045;-56
2022/08/02 08:31:38;;;;;;;5.03;2.00;;;21.00;99.90;;;;;;5022542;28;20124;-58
2022/08/02 08:34:04;;;;;;;5.53;1.52;;;21.10;99.70;;;;;;5024084;28;20179;-58
2022/08/02 08:36:30;;;;;;;4.40;2.13;;;21.20;99.60;;;;;;5011151;28;20042;-58
2022/08/02 08:38:55;;;;;;;9.00;2.08;;;21.30;99.80;;;;;;5028348;28;20076;-58
2022/08/02 08:41:21;;;;;;;5.88;1.80;;;21.40;99.80;;;;;;5019166;28;21170;-56
2022/08/02 08:43:47;;;;;;;3.55;1.58;;;21.50;99.70;;;;;;5024076;28;20049;-58
2022/08/02 08:46:28;;;;;;;6.13;1.88;;;21.60;99.40;;;;;;5028002;28;20401;-55
2022/08/02 08:49:19;;;;;;;6.03;1.95;;;21.70;99.40;;;;;;5025119;28;20049;-58
2022/08/02 08:51:44;;;;;;;3.55;1.92;;;21.80;99.60;;;;;;5016817;28;20702;-59
2022/08/02 08:54:15;;;;;;;5.28;2.47;;;21.90;99.40;;;;;;5003555;28;20045;-59
2022/08/02 08:56:42;;;;;;;5.70;2.00;;;22.00;99.50;;;;;;5020103;28;20527;-60
2022/08/02 08:59:08;;;;;;;4.10;2.28;;;22.10;99.40;;;;;;5022116;28;20053;-59
2022/08/02 09:01:34;;;;;;;6.13;2.45;;;22.20;98.80;;;;;;5018467;28;21294;-60
2022/08/02 09:04:01;;;;;;;3.90;2.20;;;22.20;98.80;;;;;;5025514;28;20029;-60
2022/08/02 09:06:27;;;;;;;6.43;2.53;;;22.30;99.00;;;;;;5020226;28;20102;-59
2022/08/02 09:08:52;;;;;;;4.63;2.20;;;22.50;98.90;;;;;;5021834;28;20073;-59
2022/08/02 09:11:23;;;;;;;8.02;2.50;;;22.50;98.70;;;;;;5000665;28;20076;-58
2022/08/02 09:13:54;;;;;;;6.50;2.13;;;22.60;98.50;;;;;;5023329;28;20053;-59
2022/08/02 09:16:27;;;;;;;5.82;2.40;;;22.60;98.80;;;;;;5016664;28;20350;-60
2022/08/02 09:18:54;;;;;;;4.50;2.40;;;22.60;98.80;;;;;;5027239;28;20042;-59
2022/08/02 09:21:20;;;;;;;3.25;2.00;;;22.70;98.90;;;;;;5020692;28;20607;-59
2022/08/02 09:23:47;;;;;;;5.85;2.83;;;22.90;99.20;;;;;;4982773;28;20041;-57
2022/08/02 09:26:19;;;;;;;10.65;3.03;;;23.00;98.60;;;;;;5026774;28;20045;-58
2022/08/02 09:28:48;;;;;;;4.68;2.60;;;23.00;98.80;;;;;;5023246;28;20075;-57
2022/08/02 09:31:19;;;;;;;5.15;2.80;;;23.10;98.70;;;;;;5019124;28;20041;-57
2022/08/02 09:33:53;;;;;;;4.43;2.50;;;23.30;98.80;;;;;;5009432;28;20090;-58
2022/08/02 09:36:20;;;;;;;4.40;2.40;;;23.50;98.90;;;;;;5029793;28;20058;-58
2022/08/02 09:38:57;;;;;;;6.10;2.97;;;23.70;98.90;;;;;;5022084;28;20045;-58
2022/08/02 09:41:25;;;;;;;9.40;3.00;;;23.80;98.00;;;;;;5014340;28;20132;-57
2022/08/02 09:43:53;;;;;;;7.82;3.13;;;23.90;98.00;;;;;;5029716;28;20044;-57
2022/08/02 09:46:24;;;;;;;7.22;3.85;;;24.00;98.10;;;;;;5028081;28;20440;-57
2022/08/02 09:48:52;;;;;;;6.63;3.47;;;24.10;97.90;;;;;;5020469;28;20041;-57
2022/08/02 09:51:30;;;;;;;8.15;4.00;;;24.10;97.30;;;;;;5025485;28;20053;-58
2022/08/02 09:53:59;;;;;;;8.00;4.13;;;24.10;97.70;;;;;;5023372;28;20034;-58
2022/08/02 09:56:27;;;;;;;7.78;3.65;;;24.20;98.10;;;;;;5023265;28;20516;-58
2022/08/02 09:58:55;;;;;;;8.30;4.03;;;24.20;98.10;;;;;;5021911;28;20052;-58
2022/08/02 10:01:31;;;;;;;6.28;3.90;;;24.20;98.00;;;;;;5000308;28;20037;-58
2022/08/02 10:03:59;;;;;;;5.53;4.25;;;24.20;98.30;;;;;;5034657;28;20060;-58
2022/08/02 10:06:25;;;;;;;14.10;6.35;;;24.20;98.20;;;;;;5019080;28;20076;-58
2022/08/02 10:08:52;;;;;;;9.68;4.78;;;24.20;98.00;;;;;;5006289;28;20119;-59
2022/08/02 10:11:19;;;;;;;5.90;4.30;;;24.30;98.50;;;;;;5011241;28;20041;-58
2022/08/02 10:13:45;;;;;;;7.10;4.57;;;24.40;98.60;;;;;;5020740;28;20045;-57
2022/08/02 10:16:11;;;;;;;12.95;5.72;;;24.60;98.80;;;;;;5020094;28;20052;-58
2022/08/02 10:18:37;;;;;;;6.78;4.20;;;24.60;98.50;;;;;;5018606;28;20493;-58
2022/08/02 10:21:09;;;;;;;6.75;4.05;;;24.80;98.40;;;;;;5023338;28;20113;-59
2022/08/02 10:23:38;;;;;;;6.57;4.60;;;24.90;98.10;;;;;;5016064;28;20041;-60
2022/08/02 10:26:06;;;;;;;6.80;3.70;;;25.00;97.90;;;;;;5009135;28;20107;-61
2022/08/02 10:28:32;;;;;;;7.22;3.75;;;25.00;96.90;;;;;;5015810;28;20492;-57
2022/08/02 10:31:02;;;;;;;5.78;3.80;;;24.90;97.50;;;;;;5002102;28;20041;-60
2022/08/02 10:33:29;;;;;;;7.78;5.30;;;24.80;97.60;;;;;;5018014;28;20056;-57
2022/08/02 10:35:57;;;;;;;7.18;4.70;;;24.90;97.90;;;;;;5010873;28;20091;-56
2022/08/02 10:38:24;;;;;;;8.00;4.88;;;24.90;98.00;;;;;;5018260;28;20045;-57
2022/08/02 10:40:55;;;;;;;6.25;4.07;;;24.90;98.10;;;;;;5020791;28;20079;-58
2022/08/02 10:43:35;;;;;;;6.05;4.28;;;24.80;98.40;;;;;;5020440;28;20042;-58
2022/08/02 10:46:26;;;;;;;5.50;4.13;;;24.80;98.50;;;;;;5017900;28;20132;-60
2022/08/02 10:49:10;;;;;;;9.13;5.30;;;24.90;98.90;;;;;;5020766;28;20073;-58
2022/08/02 10:51:54;;;;;;;;;;;25.00;99.00;;;;;;5018320;28;20484;-58
2022/08/02 10:54:30;;;;;;;9.30;7.35;;;24.90;99.00;;;;;;5017007;28;20299;-57
2022/08/02 10:56:58;;;;;;;8.70;6.60;;;24.90;99.40;;;;;;5012683;28;20052;-61
2022/08/02 10:59:35;;;;;;;10.40;7.80;;;25.00;99.50;;;;;;5019318;28;20268;-59
2022/08/02 11:02:04;;;;;;;11.15;7.25;;;25.00;99.50;;;;;;5014224;28;20042;-58
2022/08/02 11:04:35;;;;;;;9.05;6.78;;;25.00;99.60;;;;;;5010500;28;20038;-58
2022/08/02 11:07:31;;;;;;;10.57;9.00;;;25.00;99.90;;;;;;5006053;28;20526;-58
2022/08/02 11:09:59;;;;;;;13.52;9.45;;;24.90;99.50;;;;;;5028034;28;20496;-59
2022/08/02 11:12:26;;;;;;;10.88;8.68;;;24.90;99.70;;;;;;5013234;28;20037;-60
2022/08/02 11:15:02;;;;;;;13.65;10.32;;;24.80;99.90;;;;;;5017809;28;20377;-58
2022/08/02 11:17:52;;;;;;;14.45;9.93;;;24.80;99.90;;;;;;5019255;28;20049;-59
2022/08/02 11:20:19;;;;;;;13.48;10.45;;;24.80;99.90;;;;;;5020479;28;20037;-60
2022/08/02 11:22:46;;;;;;;13.15;10.27;;;24.70;99.90;;;;;;5017245;28;20029;-60
2022/08/02 11:25:21;;;;;;;14.25;10.77;;;24.40;99.90;;;;;;5020713;28;20049;-60
2022/08/02 11:27:59;;;;;;;13.20;10.52;;;24.50;99.90;;;;;;5024483;28;20049;-58
2022/08/02 11:30:26;;;;;;;11.20;9.63;;;24.50;99.90;;;;;;5026043;28;20060;-59
2022/08/02 11:32:58;;;;;;;14.75;10.70;;;24.70;99.90;;;;;;5024125;28;20392;-59
2022/08/02 11:35:36;;;;;;;15.93;11.35;;;24.70;99.90;;;;;;5032271;28;20116;-58
2022/08/02 11:38:20;;;;;;;14.00;9.75;;;24.70;99.90;;;;;;5006137;28;20049;-59
2022/08/02 11:40:48;;;;;;;11.23;8.73;;;24.70;99.60;;;;;;5013742;28;20103;-58
2022/08/02 11:43:22;;;;;;;13.27;9.90;;;24.70;99.90;;;;;;5021717;28;20040;-58
2022/08/02 11:45:52;;;;;;;14.20;10.75;;;24.60;99.90;;;;;;5021884;28;20419;-59
2022/08/02 11:48:36;;;;;;;16.42;10.35;;;24.60;99.90;;;;;;5020661;28;20622;-58
2022/08/02 11:51:06;;;;;;;13.27;10.27;;;24.60;99.90;;;;;;5039054;28;20407;-58
2022/08/02 11:53:42;;;;;;;13.50;10.90;;;24.50;99.90;;;;;;5018929;28;20040;-58
2022/08/02 11:56:09;;;;;;;13.70;10.23;;;24.50;99.90;;;;;;5002958;28;20516;-57
2022/08/02 11:58:34;;;;;;;14.80;11.10;;;24.40;99.90;;;;;;5021641;28;20022;-59
2022/08/02 12:01:01;;;;;;;14.77;10.95;;;24.30;99.90;;;;;;5020703;28;20144;-59
2022/08/02 12:03:26;;;;;;;16.50;11.27;;;24.10;99.90;;;;;;5024992;28;20030;-57
2022/08/02 12:05:53;;;;;;;15.38;11.27;;;24.30;99.90;;;;;;5012825;28;20052;-59
2022/08/02 12:08:21;;;;;;;13.68;12.27;;;24.30;99.90;;;;;;5019838;28;20037;-59
2022/08/02 12:10:48;;;;;;;14.57;11.65;;;24.30;99.90;;;;;;5011472;28;20152;-59
2022/08/02 12:13:14;;;;;;;17.92;12.68;;;24.20;99.90;;;;;;5031238;28;20393;-58
2022/08/02 12:15:45;;;;;;;14.35;11.27;;;24.10;99.90;;;;;;5022997;28;20045;-59
2022/08/02 12:21:02;;;;;;;14.75;11.00;;;24.00;99.90;;;;;;5012281;28;20046;-60
2022/08/02 12:23:28;;;;;;;14.05;10.82;;;23.90;99.90;;;;;;5034677;28;20040;-58
2022/08/02 12:26:03;;;;;;;13.88;11.52;;;23.90;99.90;;;;;;5018799;28;20037;-59
2022/08/02 12:28:33;;;;;;;14.48;11.20;;;23.90;99.90;;;;;;5001722;28;20046;-58
2022/08/02 12:31:00;;;;;;;14.43;11.95;;;23.80;99.90;;;;;;5029049;28;20455;-60
2022/08/02 12:33:44;;;;;;;16.25;12.27;;;23.80;99.90;;;;;;4985864;28;20053;-59
2022/08/02 12:36:17;;;;;;;13.98;12.20;;;23.80;99.90;;;;;;5013130;28;20475;-59
2022/08/02 12:38:51;;;;;;;17.03;13.03;;;23.70;99.90;;;;;;5036538;28;20049;-59
2022/08/02 12:41:17;;;;;;;17.33;12.95;;;23.60;99.90;;;;;;5017793;28;20353;-57
2022/08/02 12:43:43;;;;;;;17.48;13.73;;;23.50;99.90;;;;;;5012573;28;20033;-59
2022/08/02 12:46:16;;;;;;;16.67;13.32;;;23.50;99.90;;;;;;5011009;28;20037;-60
2022/08/02 12:48:42;;;;;;;17.42;13.80;;;23.50;99.90;;;;;;5012494;28;20065;-57
2022/08/02 12:51:28;;;;;;;16.42;13.45;;;23.40;99.90;;;;;;5020823;28;20075;-57
2022/08/02 12:54:09;;;;;;;16.13;13.80;;;23.40;99.90;;;;;;5018112;28;20088;-59
2022/08/02 12:56:39;;;;;;;18.63;13.52;;;23.40;99.90;;;;;;5016122;28;20067;-59
2022/08/02 12:59:05;;;;;;;16.73;14.20;;;23.40;99.90;;;;;;5021032;28;20451;-59
2022/08/02 13:01:35;;;;;;;18.70;13.55;;;23.30;99.90;;;;;;5034493;28;20171;-57